createdAt,value
2018-04-27T00:01:47.441Z,97990.30
2018-04-27T00:04:15.776Z,97990.58
2018-04-27T00:06:44.115Z,97985.35
2018-04-27T00:09:13.155Z,98001.48
2018-04-27T00:11:42.195Z,97995.60
2018-04-27T00:14:10.483Z,97999.61
2018-04-27T00:16:38.739Z,97999.41
2018-04-27T00:19:07.756Z,98001.27
2018-04-27T00:21:36.030Z,97991.39
2018-04-27T00:24:05.139Z,98001.11
2018-04-27T00:26:34.147Z,97992.69
2018-04-27T00:29:03.165Z,97991.50
2018-04-27T00:31:32.163Z,97992.66
2018-04-27T00:34:01.171Z,97985.77
2018-04-27T00:36:30.162Z,97978.66
2018-04-27T00:38:59.174Z,97983.16
2018-04-27T00:41:28.169Z,97979.56
2018-04-27T00:43:56.410Z,97975.77
2018-04-27T00:46:24.666Z,97972.72
2018-04-27T00:48:53.742Z,97976.69
2018-04-27T00:51:22.665Z,97978.96
2018-04-27T00:53:50.960Z,97969.84
2018-04-27T00:56:20.333Z,97975.36
2018-04-27T00:58:48.579Z,97977.12
2018-04-27T01:01:16.812Z,97966.37
2018-04-27T01:03:45.078Z,97962.77
2018-04-27T01:06:13.291Z,97970.67
2018-04-27T01:08:41.546Z,97974.28
2018-04-27T01:11:09.811Z,97958.91
2018-04-27T01:13:38.172Z,97957.67
2018-04-27T01:16:07.107Z,97963.06
2018-04-27T01:18:36.167Z,97965.67
2018-04-27T01:21:04.399Z,97960.03
2018-04-27T01:23:33.762Z,97951.34
2018-04-27T01:26:02.015Z,97952.56
2018-04-27T01:28:31.003Z,97946.87
2018-04-27T01:31:00.023Z,97938.53
2018-04-27T01:33:29.125Z,97942.87
2018-04-27T01:35:58.905Z,97934.67
2018-04-27T01:38:27.135Z,97937.24
2018-04-27T01:40:56.283Z,97936.42
2018-04-27T01:43:24.527Z,97930.56
2018-04-27T01:45:52.771Z,97925.78
2018-04-27T01:48:21.007Z,97930.41
2018-04-27T01:50:49.272Z,97927.36
2018-04-27T01:53:17.507Z,97926.83
2018-04-27T01:55:45.750Z,97915.55
2018-04-27T01:58:14.001Z,97916.38
2018-04-27T02:00:42.283Z,97914.45
2018-04-27T02:03:10.523Z,97900.73
2018-04-27T02:05:38.764Z,97908.34
2018-04-27T02:08:07.007Z,97905.77
2018-04-27T02:10:35.243Z,97899.59
2018-04-27T02:13:03.474Z,97905.52
2018-04-27T02:15:31.727Z,97896.06
2018-04-27T02:18:00.243Z,97893.83
2018-04-27T02:20:28.559Z,97898.32
2018-04-27T02:22:57.556Z,97894.80
2018-04-27T02:25:25.795Z,97889.34
2018-04-27T02:27:54.028Z,97891.80
2018-04-27T02:30:22.277Z,97889.66
2018-04-27T02:32:50.532Z,97889.39
2018-04-27T02:35:20.295Z,97877.70
2018-04-27T02:37:49.365Z,97883.25
2018-04-27T02:40:18.753Z,97875.39
2018-04-27T02:42:48.506Z,97861.80
2018-04-27T02:45:17.553Z,97864.16
2018-04-27T02:47:45.887Z,97861.84
2018-04-27T02:50:15.020Z,97864.83
2018-04-27T02:52:43.271Z,97866.68
2018-04-27T02:55:11.500Z,97865.02
2018-04-27T02:57:39.751Z,97860.14
2018-04-27T03:00:07.983Z,97849.61
2018-04-27T03:02:36.227Z,97848.86
2018-04-27T03:05:04.467Z,97842.13
2018-04-27T03:07:32.716Z,97839.80
2018-04-27T03:10:01.740Z,97840.97
2018-04-27T03:12:31.354Z,97834.49
2018-04-27T03:15:00.349Z,97824.77
2018-04-27T03:17:28.591Z,97824.23
2018-04-27T03:19:56.835Z,97819.61
2018-04-27T03:22:25.867Z,97826.02
2018-04-27T03:24:54.090Z,97830.52
2018-04-27T03:27:22.332Z,97826.84
2018-04-27T03:29:51.324Z,97829.03
2018-04-27T03:32:20.339Z,97818.44
2018-04-27T03:34:48.670Z,97813.58
2018-04-27T03:37:16.913Z,97820.37
2018-04-27T03:39:46.003Z,97813.58
2018-04-27T03:42:14.247Z,97817.06
2018-04-27T03:44:42.478Z,97807.20
2018-04-27T03:47:10.740Z,97808.63
2018-04-27T03:49:39.008Z,97805.45
2018-04-27T03:52:07.239Z,97794.19
2018-04-27T03:54:35.471Z,97793.70
2018-04-27T03:57:03.735Z,97786.65
2018-04-27T03:59:50.565Z,97779.91
2018-04-27T04:02:37.529Z,97776.74
2018-04-27T04:05:18.271Z,97769.56
2018-04-27T04:07:47.303Z,97760.55
2018-04-27T04:10:15.584Z,97765.64
2018-04-27T04:12:43.863Z,97752.45
2018-04-27T04:15:13.063Z,97753.85
2018-04-27T04:17:42.231Z,97760.00
2018-04-27T04:20:10.488Z,97752.78
2018-04-27T04:22:38.750Z,97747.94
2018-04-27T04:25:07.911Z,97750.86
2018-04-27T04:27:36.173Z,97743.90
2018-04-27T04:30:04.457Z,97750.60
2018-04-27T04:32:33.479Z,97747.06
2018-04-27T04:35:01.715Z,97747.55
2018-04-27T04:37:30.043Z,97746.03
2018-04-27T04:39:58.274Z,97741.43
2018-04-27T04:42:27.273Z,97739.20
2018-04-27T04:44:55.488Z,97740.95
2018-04-27T04:47:24.496Z,97733.27
2018-04-27T04:49:52.739Z,97736.62
2018-04-27T04:52:21.037Z,97737.63
2018-04-27T04:54:49.222Z,97742.19
2018-04-27T04:57:17.450Z,97736.70
2018-04-27T04:59:45.690Z,97733.32
2018-04-27T05:02:13.948Z,97743.27
2018-04-27T05:04:42.964Z,97741.40
2018-04-27T05:07:12.038Z,97736.89
2018-04-27T05:09:40.474Z,97733.78
2018-04-27T05:12:08.758Z,97729.70
2018-04-27T05:14:37.759Z,97727.09
2018-04-27T05:17:06.761Z,97717.38
2018-04-27T05:19:35.746Z,97718.41
2018-04-27T05:22:04.048Z,97709.16
2018-04-27T05:24:32.383Z,97706.77
2018-04-27T05:27:00.642Z,97712.80
2018-04-27T05:29:29.647Z,97709.66
2018-04-27T05:31:57.870Z,97715.60
2018-04-27T05:34:26.110Z,97713.31
2018-04-27T05:36:55.099Z,97703.44
2018-04-27T05:39:23.351Z,97710.92
2018-04-27T05:41:51.635Z,97717.19
2018-04-27T05:44:19.907Z,97721.28
2018-04-27T05:46:48.908Z,97719.94
2018-04-27T05:49:18.012Z,97713.61
2018-04-27T05:51:46.994Z,97713.69
2018-04-27T05:54:15.398Z,97712.70
2018-04-27T05:56:45.143Z,97708.74
2018-04-27T05:59:13.407Z,97709.73
2018-04-27T06:01:42.456Z,97697.61
2018-04-27T06:04:14.447Z,97690.37
2018-04-27T06:06:42.687Z,97684.89
2018-04-27T06:09:11.751Z,97690.52
2018-04-27T06:11:40.052Z,97679.81
2018-04-27T06:14:09.127Z,97690.69
2018-04-27T06:16:37.480Z,97684.27
2018-04-27T06:19:05.766Z,97670.98
2018-04-27T06:21:34.772Z,97675.23
2018-04-27T06:24:03.804Z,97669.07
2018-04-27T06:26:32.809Z,97658.65
2018-04-27T06:29:01.060Z,97666.13
2018-04-27T06:31:29.304Z,97662.98
2018-04-27T06:33:57.564Z,97662.39
2018-04-27T06:36:27.588Z,97651.18
2018-04-27T06:38:56.600Z,97651.71
2018-04-27T06:41:25.618Z,97647.89
2018-04-27T06:43:53.867Z,97646.31
2018-04-27T06:46:22.251Z,97647.77
2018-04-27T06:48:50.523Z,97636.13
2018-04-27T06:51:18.765Z,97633.44
2018-04-27T06:53:47.809Z,97624.91
2018-04-27T06:56:16.067Z,97623.92
2018-04-27T06:58:45.138Z,97630.18
2018-04-27T07:01:13.403Z,97623.64
2018-04-27T07:03:41.691Z,97616.73
2018-04-27T07:06:09.963Z,97617.22
2018-04-27T07:08:38.251Z,97608.23
2018-04-27T07:11:06.512Z,97603.94
2018-04-27T07:13:35.543Z,97597.88
2018-04-27T07:16:03.807Z,97601.28
2018-04-27T07:18:33.006Z,97596.27
2018-04-27T07:21:02.015Z,97591.31
2018-04-27T07:23:31.063Z,97591.70
2018-04-27T07:25:59.414Z,97595.19
2018-04-27T07:28:27.608Z,97589.47
2018-04-27T07:30:56.640Z,97583.09
2018-04-27T07:33:24.878Z,97580.22
2018-04-27T07:35:53.130Z,97577.78
2018-04-27T07:38:21.381Z,97566.27
2018-04-27T07:40:50.414Z,97567.68
2018-04-27T07:43:18.655Z,97569.77
2018-04-27T07:45:46.911Z,97565.47
2018-04-27T07:48:15.163Z,97564.18
2018-04-27T07:50:44.179Z,97568.92
2018-04-27T07:53:13.187Z,97554.70
2018-04-27T07:55:41.439Z,97557.49
2018-04-27T07:58:09.692Z,97552.88
2018-04-27T08:00:37.987Z,97552.08
2018-04-27T08:03:06.247Z,97546.08
2018-04-27T08:05:34.485Z,97544.96
2018-04-27T08:08:02.730Z,97535.02
2018-04-27T08:10:31.015Z,97534.77
2018-04-27T08:12:59.259Z,97531.67
2018-04-27T08:15:29.231Z,97531.25
2018-04-27T08:17:57.475Z,97533.50
2018-04-27T08:20:28.440Z,97533.91
2018-04-27T08:22:58.272Z,97524.61
2018-04-27T08:25:27.998Z,97518.03
2018-04-27T08:27:57.293Z,97520.33
2018-04-27T08:30:25.586Z,97514.03
2018-04-27T08:32:54.604Z,97508.98
2018-04-27T08:35:23.627Z,97504.03
2018-04-27T08:37:51.870Z,97499.76
2018-04-27T08:40:20.191Z,97510.48
2018-04-27T08:42:49.239Z,97496.36
2018-04-27T08:45:17.512Z,97493.87
2018-04-27T08:47:45.747Z,97493.64
2018-04-27T08:50:14.013Z,97486.25
2018-04-27T08:52:42.258Z,97484.73
2018-04-27T08:55:11.317Z,97486.86
2018-04-27T08:57:40.361Z,97485.33
2018-04-27T09:00:09.424Z,97474.03
2018-04-27T09:02:37.649Z,97469.92
2018-04-27T09:05:05.912Z,97466.09
2018-04-27T09:07:34.156Z,97465.47
2018-04-27T09:10:03.229Z,97463.16
2018-04-27T09:12:31.494Z,97453.17
2018-04-27T09:14:59.783Z,97448.55
2018-04-27T09:17:28.028Z,97447.14
2018-04-27T09:19:57.074Z,97444.91
2018-04-27T09:22:25.315Z,97440.71
2018-04-27T09:24:54.324Z,97437.34
2018-04-27T09:27:22.557Z,97425.72
2018-04-27T09:29:50.820Z,97427.95
2018-04-27T09:32:19.155Z,97416.34
2018-04-27T09:34:47.327Z,97416.22
2018-04-27T09:37:16.173Z,97417.35
2018-04-27T09:39:45.219Z,97409.39
2018-04-27T09:42:13.483Z,97411.41
2018-04-27T09:44:41.788Z,97403.84
2018-04-27T09:47:10.111Z,97403.73
2018-04-27T09:49:38.422Z,97398.87
2018-04-27T09:52:06.662Z,97392.88
2018-04-27T09:54:35.719Z,97389.09
2018-04-27T09:57:04.737Z,97383.28
2018-04-27T09:59:33.736Z,97383.98
2018-04-27T10:02:02.006Z,97386.25
2018-04-27T10:04:30.269Z,97381.06
2018-04-27T10:06:58.520Z,97370.89
2018-04-27T10:09:26.783Z,97379.45
2018-04-27T10:11:55.043Z,97379.58
2018-04-27T10:14:23.355Z,97376.36
2018-04-27T10:16:51.636Z,97378.45
2018-04-27T10:19:19.899Z,97377.17
2018-04-27T10:21:48.163Z,97375.38
2018-04-27T10:24:16.390Z,97369.66
2018-04-27T10:26:44.696Z,97364.45
2018-04-27T10:29:12.943Z,97359.88
2018-04-27T10:31:41.225Z,97358.25
2018-04-27T10:34:09.514Z,97356.13
2018-04-27T10:36:37.841Z,97345.83
2018-04-27T10:39:06.772Z,97362.01
2018-04-27T10:41:35.036Z,97344.67
2018-04-27T10:44:03.287Z,97337.28
2018-04-27T10:46:31.545Z,97324.58
2018-04-27T10:49:00.544Z,97328.55
2018-04-27T10:51:28.781Z,97321.55
2018-04-27T10:53:57.028Z,97315.70
2018-04-27T10:56:26.043Z,97324.72
2018-04-27T10:58:55.075Z,97315.18
2018-04-27T11:01:23.380Z,97305.77
2018-04-27T11:03:51.652Z,97297.84
2018-04-27T11:06:19.902Z,97297.82
2018-04-27T11:08:49.658Z,97300.35
2018-04-27T11:11:17.905Z,97279.99
2018-04-27T11:13:46.195Z,97278.57
2018-04-27T11:16:14.496Z,97274.67
2018-04-27T11:18:42.842Z,97277.17
2018-04-27T11:21:11.101Z,97270.06
2018-04-27T11:23:39.511Z,97254.65
2018-04-27T11:26:07.838Z,97259.64
2018-04-27T11:28:36.109Z,97255.45
2018-04-27T11:31:05.092Z,97253.24
2018-04-27T11:33:33.342Z,97245.19
2018-04-27T11:36:02.359Z,97238.80
2018-04-27T11:38:31.420Z,97229.53
2018-04-27T11:40:59.674Z,97219.78
2018-04-27T11:43:27.930Z,97215.22
2018-04-27T11:45:56.178Z,97198.05
2018-04-27T11:48:24.449Z,97200.89
2018-04-27T11:50:52.700Z,97198.53
2018-04-27T11:53:21.787Z,97205.18
2018-04-27T11:55:50.044Z,97191.70
2018-04-27T11:58:18.327Z,97184.80
2018-04-27T12:00:47.413Z,97190.05
2018-04-27T12:03:16.456Z,97192.09
2018-04-27T12:05:44.731Z,97192.16
2018-04-27T12:08:13.088Z,97198.23
2018-04-27T12:10:42.232Z,97201.18
2018-04-27T12:13:10.507Z,97210.30
2018-04-27T12:15:38.762Z,97201.85
2018-04-27T12:18:07.787Z,97197.59
2018-04-27T12:20:36.794Z,97198.25
2018-04-27T12:23:06.554Z,97188.13
2018-04-27T12:25:34.815Z,97197.14
2018-04-27T12:28:03.087Z,97196.94
2018-04-27T12:30:32.130Z,97191.64
2018-04-27T12:33:00.391Z,97191.13
2018-04-27T12:35:29.415Z,97192.27
2018-04-27T12:37:57.683Z,97183.75
2018-04-27T12:40:26.721Z,97186.84
2018-04-27T12:42:55.022Z,97176.95
2018-04-27T12:45:23.281Z,97171.34
2018-04-27T12:47:52.286Z,97160.39
2018-04-27T12:50:20.513Z,97172.11
2018-04-27T12:52:48.815Z,97174.64
2018-04-27T12:55:17.071Z,97162.58
2018-04-27T12:57:45.368Z,97146.29
2018-04-27T13:00:14.392Z,97142.77
2018-04-27T13:02:43.431Z,97141.11
2018-04-27T13:05:12.544Z,97134.92
2018-04-27T13:07:40.899Z,97137.55
2018-04-27T13:10:09.145Z,97133.17
2018-04-27T13:12:38.187Z,97125.02
2018-04-27T13:15:06.489Z,97129.78
2018-04-27T13:17:34.743Z,97120.42
2018-04-27T13:20:02.996Z,97125.84
2018-04-27T13:22:31.248Z,97127.39
2018-04-27T13:24:59.486Z,97139.30
2018-04-27T13:27:28.510Z,97130.53
2018-04-27T13:29:56.759Z,97130.75
2018-04-27T13:32:25.813Z,97130.84
2018-04-27T13:34:54.698Z,97133.66
2018-04-27T13:37:23.737Z,97140.84
2018-04-27T13:39:51.979Z,97133.53
2018-04-27T13:42:20.226Z,97129.92
2018-04-27T13:44:48.471Z,97121.97
2018-04-27T13:47:16.734Z,97119.15
2018-04-27T13:49:45.754Z,97113.36
2018-04-27T13:52:14.038Z,97108.53
2018-04-27T13:54:42.283Z,97111.96
2018-04-27T13:57:11.287Z,97111.15
2018-04-27T13:59:40.313Z,97103.65
2018-04-27T14:02:08.571Z,97095.91
2018-04-27T14:04:37.596Z,97088.86
2018-04-27T14:07:06.597Z,97094.64
2018-04-27T14:09:35.623Z,97094.50
2018-04-27T14:12:04.707Z,97088.41
2018-04-27T14:14:32.985Z,97078.52
2018-04-27T14:17:01.232Z,97083.15
2018-04-27T14:19:29.534Z,97070.16
2018-04-27T14:21:57.805Z,97074.52
2018-04-27T14:24:26.108Z,97066.96
2018-04-27T14:26:54.507Z,97071.55
2018-04-27T14:29:24.271Z,97067.86
2018-04-27T14:31:53.296Z,97074.35
2018-04-27T14:34:21.572Z,97049.95
2018-04-27T14:36:50.583Z,97043.70
2018-04-27T14:39:20.346Z,97041.19
2018-04-27T14:41:48.580Z,97041.32
2018-04-27T14:44:16.843Z,97028.74
2018-04-27T14:46:45.855Z,97027.13
2018-04-27T14:49:14.142Z,97022.41
2018-04-27T14:51:43.410Z,97011.33
2018-04-27T14:54:11.736Z,97006.44
2018-04-27T14:56:39.991Z,97003.16
2018-04-27T14:59:08.275Z,97005.25
2018-04-27T15:01:36.571Z,97012.16
2018-04-27T15:04:04.843Z,97009.28
2018-04-27T15:06:33.096Z,97005.23
2018-04-27T15:09:02.104Z,97008.36
2018-04-27T15:11:30.370Z,96999.68
2018-04-27T15:13:59.425Z,97000.05
2018-04-27T15:16:27.649Z,96995.42
2018-04-27T15:18:55.939Z,96985.05
2018-04-27T15:21:24.189Z,96980.41
2018-04-27T15:23:52.626Z,96976.88
2018-04-27T15:26:21.663Z,96981.69
2018-04-27T15:28:49.939Z,96983.58
2018-04-27T15:31:19.519Z,96976.63
2018-04-27T15:33:47.865Z,96977.44
2018-04-27T15:36:16.032Z,96972.41
2018-04-27T15:38:45.042Z,96973.98
2018-04-27T15:41:13.325Z,96974.63
2018-04-27T15:43:42.350Z,96967.64
2018-04-27T15:46:10.749Z,96963.62
2018-04-27T15:48:39.004Z,96966.97
2018-04-27T15:51:07.275Z,96969.44
2018-04-27T15:53:35.538Z,96964.48
2018-04-27T15:56:03.842Z,96964.66
2018-04-27T15:58:32.909Z,96972.61
2018-04-27T16:01:01.171Z,96971.80
2018-04-27T16:03:30.191Z,96968.34
2018-04-27T16:05:58.551Z,96964.33
2018-04-27T16:08:26.794Z,96956.52
2018-04-27T16:10:55.217Z,96945.66
2018-04-27T16:13:50.788Z,96944.75
2018-04-27T16:16:24.230Z,96942.49
2018-04-27T16:18:53.271Z,96945.08
2018-04-27T16:21:21.557Z,96940.45
2018-04-27T16:23:51.756Z,96949.56
2018-04-27T16:26:32.299Z,96957.19
2018-04-27T16:29:00.559Z,96955.71
2018-04-27T16:31:28.834Z,96951.40
2018-04-27T16:33:58.169Z,96953.20
2018-04-27T16:36:26.419Z,96956.14
2018-04-27T16:38:55.825Z,96952.64
2018-04-27T16:41:24.087Z,96963.34
2018-04-27T16:43:52.436Z,96963.51
2018-04-27T16:46:20.882Z,96958.43
2018-04-27T16:48:50.342Z,96957.94
2018-04-27T16:51:19.598Z,96952.67
2018-04-27T16:53:47.817Z,96954.91
2018-04-27T16:56:16.853Z,96958.53
2018-04-27T16:58:45.963Z,96956.16
2018-04-27T17:01:15.849Z,96956.39
2018-04-27T17:03:44.225Z,96951.81
2018-04-27T17:06:13.290Z,96949.14
2018-04-27T17:08:41.578Z,96951.08
2018-04-27T17:11:09.854Z,96957.81
2018-04-27T17:13:38.888Z,96962.84
2018-04-27T17:16:08.261Z,96954.94
2018-04-27T17:18:37.375Z,96961.05
2018-04-27T17:21:05.930Z,96957.67
2018-04-27T17:23:34.157Z,96959.12
2018-04-27T17:26:03.184Z,96960.36
2018-04-27T17:28:31.523Z,96970.50
2018-04-27T17:30:59.730Z,96970.39
2018-04-27T17:33:27.973Z,96976.68
2018-04-27T17:35:56.268Z,96973.39
2018-04-27T17:38:24.565Z,96978.41
2018-04-27T17:40:52.857Z,96968.31
2018-04-27T17:43:21.142Z,96979.34
2018-04-27T17:45:50.188Z,96982.91
2018-04-27T17:48:18.370Z,96990.68
2018-04-27T17:50:46.638Z,96984.20
2018-04-27T17:53:14.907Z,96996.56
2018-04-27T17:55:43.261Z,97004.17
2018-04-27T17:58:11.487Z,97002.80
2018-04-27T18:00:39.792Z,97008.22
2018-04-27T18:03:08.027Z,97013.28
2018-04-27T18:05:37.055Z,97010.56
2018-04-27T18:08:05.291Z,97023.09
2018-04-27T18:10:33.559Z,97018.94
2018-04-27T18:13:01.806Z,97015.39
2018-04-27T18:15:31.745Z,97022.28
2018-04-27T18:18:01.399Z,97027.83
2018-04-27T18:20:30.404Z,97024.45
2018-04-27T18:22:58.777Z,97030.69
2018-04-27T18:25:27.812Z,97040.16
2018-04-27T18:27:57.027Z,97049.52
2018-04-27T18:30:25.291Z,97048.02
2018-04-27T18:32:53.647Z,97058.00
2018-04-27T18:35:22.664Z,97063.10
2018-04-27T18:37:50.895Z,97063.44
2018-04-27T18:40:19.177Z,97071.20
2018-04-27T18:42:47.450Z,97077.95
2018-04-27T18:45:15.674Z,97070.98
2018-04-27T18:47:43.935Z,97077.06
2018-04-27T18:50:12.204Z,97081.89
2018-04-27T18:52:40.475Z,97081.98
2018-04-27T18:55:09.507Z,97084.53
2018-04-27T18:57:37.762Z,97091.41
2018-04-27T19:00:06.768Z,97093.44
2018-04-27T19:02:36.163Z,97094.96
2018-04-27T19:05:04.436Z,97103.50
2018-04-27T19:07:32.687Z,97102.73
2018-04-27T19:10:00.974Z,97111.55
2018-04-27T19:12:30.023Z,97110.59
2018-04-27T19:14:58.264Z,97119.09
2018-04-27T19:17:26.522Z,97120.20
2018-04-27T19:19:54.839Z,97119.59
2018-04-27T19:22:27.808Z,97121.38
2018-04-27T19:24:57.916Z,97121.35
2018-04-27T19:27:26.174Z,97125.38
2018-04-27T19:29:54.450Z,97125.36
2018-04-27T19:32:23.470Z,97130.67
2018-04-27T19:34:51.729Z,97133.76
2018-04-27T19:37:19.988Z,97129.91
2018-04-27T19:39:48.244Z,97132.92
2018-04-27T19:42:16.540Z,97136.09
2018-04-27T19:44:44.788Z,97140.31
2018-04-27T19:47:13.062Z,97137.28
2018-04-27T19:49:41.433Z,97140.52
2018-04-27T19:52:09.692Z,97150.42
2018-04-27T19:54:37.923Z,97151.91
2018-04-27T19:57:06.187Z,97155.92
2018-04-27T19:59:34.431Z,97156.52
2018-04-27T20:02:03.468Z,97158.92
2018-04-27T20:04:31.725Z,97161.52
2018-04-27T20:07:00.780Z,97159.78
2018-04-27T20:09:29.032Z,97166.46
2018-04-27T20:11:58.081Z,97173.16
2018-04-27T20:14:38.463Z,97173.43
2018-04-27T20:17:06.715Z,97176.61
2018-04-27T20:19:51.440Z,97175.10
2018-04-27T20:22:21.328Z,97181.72
2018-04-27T20:24:49.564Z,97189.39
2018-04-27T20:27:19.519Z,97183.40
2018-04-27T20:29:47.756Z,97193.56
2018-04-27T20:32:16.011Z,97219.60
2018-04-27T20:34:44.397Z,97212.22
2018-04-27T20:37:13.462Z,97220.88
2018-04-27T20:39:41.707Z,97227.26
2018-04-27T20:42:10.093Z,97226.00
2018-04-27T20:44:38.411Z,97229.50
2018-04-27T20:47:07.892Z,97238.51
2018-04-27T20:49:37.921Z,97233.03
2018-04-27T20:52:06.171Z,97247.03
2018-04-27T20:54:36.709Z,97248.02
2018-04-27T20:57:04.946Z,97254.63
2018-04-27T20:59:33.263Z,97251.55
2018-04-27T21:02:01.526Z,97256.34
2018-04-27T21:04:29.788Z,97257.68
2018-04-27T21:06:58.915Z,97261.06
2018-04-27T21:09:27.913Z,97271.77
2018-04-27T21:11:57.652Z,97254.67
2018-04-27T21:14:25.924Z,97260.94
2018-04-27T21:16:55.871Z,97258.72
2018-04-27T21:19:24.165Z,97251.56
2018-04-27T21:21:52.403Z,97259.61
2018-04-27T21:24:20.667Z,97254.95
2018-04-27T21:26:48.895Z,97251.66
2018-04-27T21:29:17.927Z,97252.09
2018-04-27T21:31:46.209Z,97259.11
2018-04-27T21:34:14.615Z,97255.43
2018-04-27T21:36:45.479Z,97255.66
2018-04-27T21:39:17.480Z,97250.58
2018-04-27T21:41:50.103Z,97248.25
2018-04-27T21:44:23.767Z,97252.71
2018-04-27T21:47:02.623Z,97255.65
2018-04-27T21:49:32.001Z,97260.09
2018-04-27T21:52:17.691Z,97268.97
2018-04-27T21:54:48.592Z,97278.98
2018-04-27T22:00:15.632Z,97297.06
2018-04-27T22:02:49.327Z,97300.06
2018-04-27T22:08:40.991Z,97301.89
2018-04-27T22:11:17.927Z,97306.75
2018-04-27T22:13:46.183Z,97308.28
2018-04-27T22:16:21.874Z,97308.99
2018-04-27T22:18:50.131Z,97314.93
2018-04-27T22:21:18.365Z,97316.14
2018-04-27T22:23:46.601Z,97318.64
2018-04-27T22:26:18.268Z,97320.45
2018-04-27T22:28:49.383Z,97327.58
2018-04-27T22:31:17.619Z,97332.75
2018-04-27T22:33:46.438Z,97338.17
2018-04-27T22:42:25.222Z,97353.64
2018-04-27T22:45:17.883Z,97369.08
2018-04-27T22:50:53.582Z,97381.43
2018-04-27T22:53:21.819Z,97378.22
2018-04-27T22:55:50.075Z,97392.26
2018-04-27T22:58:18.311Z,97382.92
2018-04-27T23:01:04.313Z,97395.46
2018-04-27T23:03:33.345Z,97393.99
2018-04-27T23:06:01.689Z,97396.69
2018-04-27T23:08:31.488Z,97399.22
2018-04-27T23:11:09.411Z,97402.30
2018-04-27T23:16:50.120Z,97407.33
2018-04-27T23:19:19.289Z,97404.81
2018-04-27T23:21:59.062Z,97408.70
2018-04-27T23:24:27.338Z,97408.15
2018-04-27T23:27:02.564Z,97406.80
2018-04-27T23:29:31.948Z,97404.13
2018-04-27T23:32:00.177Z,97408.27
2018-04-27T23:34:28.429Z,97411.50
2018-04-27T23:36:57.602Z,97400.55
2018-04-27T23:39:25.863Z,97402.41
2018-04-27T23:41:54.139Z,97411.20
2018-04-27T23:44:23.763Z,97406.93
2018-04-27T23:46:52.773Z,97411.88
2018-04-27T23:49:21.786Z,97405.72
2018-04-27T23:51:50.940Z,97410.52
2018-04-27T23:54:19.167Z,97405.59
2018-04-27T23:56:48.979Z,97415.45
2018-04-27T23:59:21.770Z,97411.72
